createdAt,value
2017-11-15T12:17:58.660Z,90
2017-11-15T12:19:33.999Z,91
2017-11-15T12:22:23.341Z,91
2017-11-15T12:24:44.683Z,91
2017-11-15T12:27:56.381Z,86
2017-11-15T12:31:41.889Z,85
2017-11-15T12:35:32.143Z,83
2017-11-15T12:39:18.318Z,85
2017-11-15T12:43:08.928Z,84
2017-11-15T12:47:05.782Z,84
2017-11-15T12:50:53.419Z,84
2017-11-15T12:54:44.705Z,84
2017-11-15T12:58:33.505Z,84
2017-11-15T13:02:20.500Z,84
2017-11-15T13:06:08.760Z,84
2017-11-15T13:51:56.159Z,83
2017-11-15T13:54:04.482Z,83
2017-11-15T13:56:13.783Z,81
2017-11-15T13:58:19.402Z,83
2017-11-15T14:00:29.343Z,81
2017-11-15T14:02:37.206Z,79
2017-11-15T14:04:45.520Z,80
2017-11-15T14:06:57.523Z,83
2017-11-15T14:09:10.324Z,83
2017-11-15T14:11:33.948Z,83
2017-11-15T14:15:59.659Z,83
2017-11-15T14:18:13.723Z,83
2017-11-15T14:20:26.906Z,83
2017-11-15T14:22:33.581Z,83
2017-11-15T14:24:43.617Z,83
2017-11-15T14:26:50.565Z,82
2017-11-15T14:28:55.036Z,82
2017-11-15T14:30:59.685Z,82
2017-11-15T14:33:02.544Z,82
2017-11-15T14:35:08.985Z,82
2017-11-15T14:37:17.801Z,82
2017-11-15T14:39:20.476Z,82
2017-11-15T14:41:32.444Z,82
2017-11-15T14:45:42.749Z,82
2017-11-15T14:47:57.667Z,82
2017-11-15T14:50:12.859Z,80
2017-11-15T14:52:16.453Z,82
2017-11-15T14:54:22.065Z,82
2017-11-15T14:56:27.327Z,82
2017-11-15T14:58:36.579Z,82
2017-11-15T15:00:44.097Z,82
2017-11-15T15:02:48.719Z,82
2017-11-15T15:04:53.236Z,82
2017-11-15T15:07:09.323Z,82
2017-11-15T15:09:15.043Z,82
2017-11-15T15:11:19.766Z,81
2017-11-15T15:13:26.507Z,82
2017-11-15T15:15:38.619Z,81
2017-11-15T15:17:55.127Z,82
2017-11-15T15:22:10.639Z,82
2017-11-15T15:24:13.122Z,82
2017-11-15T15:26:19.791Z,82
2017-11-15T15:28:30.041Z,82
2017-11-15T15:30:36.144Z,81
2017-11-15T15:32:46.341Z,81
2017-11-15T15:34:53.597Z,82
2017-11-15T15:36:57.343Z,82
2017-11-15T15:38:59.477Z,82
2017-11-15T15:41:04.220Z,82
2017-11-15T15:43:15.187Z,82
2017-11-15T15:45:23.248Z,82
2017-11-15T15:47:30.124Z,82
2017-11-15T15:49:41.903Z,82
2017-11-15T15:51:47.625Z,80
2017-11-15T15:53:49.301Z,82
2017-11-15T15:55:53.064Z,82
2017-11-15T15:57:55.661Z,82
2017-11-15T16:00:04.418Z,82
2017-11-15T16:02:11.403Z,79
2017-11-15T16:04:18.971Z,82
2017-11-15T16:06:47.279Z,82
2017-11-15T16:08:52.482Z,79
2017-11-15T16:11:04.058Z,82
2017-11-15T16:13:14.348Z,82
2017-11-15T16:15:22.340Z,82
2017-11-15T16:17:25.328Z,82
2017-11-15T16:19:29.340Z,82
2017-11-15T16:21:31.718Z,82
2017-11-15T16:23:38.780Z,82
2017-11-15T16:25:48.121Z,82
2017-11-15T16:27:59.760Z,82
2017-11-15T16:30:06.229Z,82
2017-11-15T16:32:10.250Z,82
2017-11-15T16:34:14.036Z,80
2017-11-15T16:36:17.537Z,82
2017-11-15T16:38:20.289Z,82
2017-11-15T16:40:21.781Z,81
2017-11-15T16:42:26.739Z,79
2017-11-15T16:46:55.528Z,81
2017-11-15T16:49:00.266Z,79
2017-11-15T16:51:03.815Z,80
2017-11-15T16:53:14.548Z,82
2017-11-15T16:55:16.401Z,81
2017-11-15T16:57:17.678Z,82
2017-11-15T16:59:19.561Z,81
2017-11-15T17:01:20.580Z,81
2017-11-15T17:03:21.066Z,80
2017-11-15T17:05:22.501Z,81
2017-11-15T17:07:23.482Z,82
2017-11-15T17:09:23.504Z,81
2017-11-15T17:11:24.080Z,79
2017-11-15T17:13:46.063Z,80
2017-11-15T17:15:45.959Z,78
2017-11-15T17:17:47.687Z,81
2017-11-15T17:19:51.378Z,81
2017-11-15T17:21:52.722Z,81
2017-11-15T17:23:54.484Z,81
2017-11-15T17:25:54.880Z,81
2017-11-15T17:27:55.196Z,81
2017-11-15T17:29:55.068Z,78
2017-11-15T17:31:55.802Z,81
2017-11-15T17:33:57.483Z,81
2017-11-15T17:35:59.119Z,81
2017-11-15T17:37:59.660Z,79
2017-11-15T17:40:00.928Z,81
2017-11-15T17:42:02.570Z,81
2017-11-15T17:44:04.563Z,81
2017-11-15T17:46:04.879Z,81
2017-11-15T17:48:05.203Z,81
2017-11-15T17:50:04.982Z,80
2017-11-15T17:52:06.184Z,81
2017-11-15T17:54:06.298Z,81
2017-11-15T17:56:06.799Z,80
2017-11-15T17:58:10.778Z,79
2017-11-15T18:00:12.144Z,81
2017-11-15T18:02:13.896Z,81
2017-11-15T18:04:16.845Z,81
2017-11-15T18:06:17.144Z,80
2017-11-15T18:08:17.678Z,81
2017-11-15T18:10:18.020Z,79
2017-11-15T18:12:20.800Z,79
2017-11-15T18:14:22.209Z,81
2017-11-15T18:16:24.626Z,77
2017-11-15T18:18:24.660Z,79
2017-11-15T18:20:24.836Z,81
2017-11-15T18:22:24.986Z,80
2017-11-15T18:24:24.957Z,80
2017-11-15T18:26:25.123Z,80
2017-11-15T18:28:25.320Z,77
2017-11-15T18:30:25.161Z,80
2017-11-15T18:32:26.171Z,80
2017-11-15T18:34:35.458Z,80
2017-11-15T18:36:39.280Z,81
2017-11-15T18:38:43.283Z,80
2017-11-15T18:40:46.056Z,80
2017-11-15T18:42:48.318Z,80
2017-11-15T18:44:51.582Z,81
2017-11-15T18:46:53.116Z,80
2017-11-15T18:48:54.596Z,80
2017-11-15T18:50:55.941Z,77
2017-11-15T18:52:56.369Z,79
2017-11-15T18:54:56.481Z,80
2017-11-15T18:56:56.726Z,80
2017-11-15T18:58:56.990Z,80
2017-11-15T19:00:56.897Z,80
2017-11-15T19:02:57.083Z,80
2017-11-15T19:04:57.420Z,80
2017-11-15T19:06:58.080Z,80
2017-11-15T19:08:57.961Z,80
2017-11-15T19:10:57.981Z,80
2017-11-15T19:12:58.374Z,80
2017-11-15T19:14:59.244Z,80
2017-11-15T19:16:59.309Z,80
2017-11-15T19:19:00.099Z,80
2017-11-15T19:20:59.597Z,80
2017-11-15T19:22:59.506Z,80
2017-11-15T19:24:59.262Z,80
2017-11-15T19:26:58.503Z,77
2017-11-15T19:28:58.180Z,80
2017-11-15T19:30:57.819Z,80
2017-11-15T19:32:59.101Z,80
2017-11-15T19:34:59.184Z,78
2017-11-15T19:36:58.757Z,77
2017-11-15T19:39:00.220Z,80
2017-11-15T19:40:59.735Z,77
2017-11-15T19:42:59.563Z,79
2017-11-15T19:44:58.939Z,77
2017-11-15T19:46:58.502Z,80
2017-11-15T19:48:58.080Z,79
2017-11-15T19:50:58.999Z,79
2017-11-15T19:53:00.043Z,78
2017-11-15T19:55:00.303Z,80
2017-11-15T19:57:00.979Z,79
2017-11-15T19:59:00.811Z,77
2017-11-15T20:01:00.883Z,79
2017-11-15T20:03:01.416Z,80
2017-11-15T20:05:01.124Z,79
2017-11-15T20:07:01.143Z,79
2017-11-15T20:09:01.463Z,79
2017-11-15T20:11:01.389Z,79
2017-11-15T20:13:00.839Z,77
2017-11-15T20:15:00.549Z,80
2017-11-15T20:17:00.306Z,79
2017-11-15T20:19:00.276Z,79
2017-11-15T20:21:01.106Z,79
2017-11-15T20:23:01.109Z,78
2017-11-15T20:25:01.625Z,79
2017-11-15T20:27:03.420Z,78
2017-11-15T20:29:03.236Z,79
2017-11-15T20:31:03.501Z,79
2017-11-15T20:33:03.189Z,79
2017-11-15T20:35:02.701Z,78
2017-11-15T20:37:02.340Z,77
2017-11-15T20:39:02.531Z,77
2017-11-15T20:41:01.884Z,80
2017-11-15T20:43:02.343Z,78
2017-11-15T20:45:04.797Z,78
2017-11-15T20:47:05.522Z,79
2017-11-15T20:49:05.142Z,79
2017-11-15T20:51:04.824Z,79
2017-11-15T20:53:04.604Z,77
2017-11-15T20:55:05.389Z,79
2017-11-15T20:57:05.365Z,79
2017-11-15T20:59:04.999Z,79
2017-11-15T21:01:04.399Z,77
2017-11-15T21:03:03.996Z,79
2017-11-15T21:05:03.420Z,78
2017-11-15T21:07:02.944Z,77
2017-11-15T21:09:04.001Z,79
2017-11-15T21:11:04.024Z,79
2017-11-15T21:13:03.416Z,79
2017-11-15T21:15:02.764Z,78
2017-11-15T21:17:02.098Z,77
2017-11-15T21:19:01.244Z,77
2017-11-15T21:21:01.702Z,77
2017-11-15T21:23:01.263Z,79
2017-11-15T21:25:00.679Z,76
2017-11-15T21:27:01.005Z,79
2017-11-15T21:29:00.538Z,77
2017-11-15T21:31:00.540Z,77
2017-11-15T21:32:59.883Z,78
2017-11-15T21:34:59.726Z,77
2017-11-15T21:36:59.184Z,79
2017-11-15T21:38:59.141Z,77
2017-11-15T21:40:58.441Z,79
2017-11-15T21:42:57.541Z,79
2017-11-15T21:44:56.840Z,77
2017-11-15T21:46:56.565Z,79
2017-11-15T21:48:56.363Z,77
2017-11-15T21:50:55.621Z,77
2017-11-15T21:52:55.242Z,79
2017-11-15T21:54:54.461Z,77
2017-11-15T21:56:57.636Z,77
2017-11-15T21:58:56.784Z,77
2017-11-15T22:00:55.964Z,77
2017-11-15T22:02:54.963Z,79
2017-11-15T22:04:54.143Z,77
2017-11-15T22:06:54.599Z,79
2017-11-15T22:08:53.682Z,77
2017-11-15T22:10:52.822Z,79
2017-11-15T22:12:53.298Z,77
2017-11-15T22:14:53.001Z,78
2017-11-15T22:16:52.019Z,77
2017-11-15T22:18:51.186Z,79
2017-11-15T22:20:50.467Z,79
2017-11-15T22:22:49.517Z,79
2017-11-15T22:24:48.704Z,78
2017-11-15T22:26:48.285Z,79
2017-11-15T22:28:47.562Z,77
2017-11-15T22:30:51.661Z,79
2017-11-15T22:32:50.995Z,78
2017-11-15T22:34:50.045Z,79
2017-11-15T22:36:49.278Z,77
2017-11-15T22:38:48.983Z,77
2017-11-15T22:40:48.190Z,77
2017-11-15T22:42:47.823Z,77
2017-11-15T22:44:47.125Z,79
2017-11-15T22:46:46.168Z,79
2017-11-15T22:48:45.762Z,79
2017-11-15T22:50:45.063Z,79
2017-11-15T22:52:44.148Z,77
2017-11-15T22:54:43.642Z,76
2017-11-15T22:56:44.012Z,79
2017-11-15T22:58:43.810Z,77
2017-11-15T23:00:42.940Z,77
2017-11-15T23:02:42.505Z,77
2017-11-15T23:04:41.458Z,75
2017-11-15T23:06:40.540Z,79
2017-11-15T23:08:39.718Z,76
2017-11-15T23:10:38.600Z,77
2017-11-15T23:12:37.683Z,76
2017-11-15T23:14:36.744Z,79
2017-11-15T23:16:36.124Z,79
2017-11-15T23:18:35.376Z,78
2017-11-15T23:20:36.058Z,79
2017-11-15T23:22:35.542Z,79
2017-11-15T23:24:34.826Z,77
2017-11-15T23:26:34.606Z,79
2017-11-15T23:28:33.955Z,76
2017-11-15T23:30:33.187Z,77
2017-11-15T23:32:32.220Z,77
2017-11-15T23:34:31.300Z,79
2017-11-15T23:36:30.991Z,78
2017-11-15T23:40:37.408Z,75
2017-11-15T23:42:36.459Z,77
2017-11-15T23:44:35.658Z,77
2017-11-15T23:46:34.623Z,77
2017-11-15T23:48:33.643Z,77
2017-11-15T23:50:32.587Z,78
2017-11-15T23:52:31.541Z,77
2017-11-15T23:54:30.604Z,78
2017-11-15T23:56:31.026Z,78
2017-11-15T23:58:30.486Z,77
